createdAt,value
2023-01-17T00:00:24.505Z,8.35
2023-01-17T00:04:45.097Z,8.77
2023-01-17T00:09:06.791Z,9.07
2023-01-17T00:13:09.583Z,6.72
2023-01-17T00:17:12.448Z,7.32
2023-01-17T00:21:31.986Z,8.05
2023-01-17T00:25:56.067Z,7.13
2023-01-17T00:29:57.835Z,6.63
2023-01-17T00:33:59.826Z,8.25
2023-01-17T00:38:04.044Z,7.63
2023-01-17T00:42:07.105Z,7.38
2023-01-17T00:46:27.486Z,9.43
2023-01-17T00:50:48.200Z,7.97
2023-01-17T00:55:08.701Z,9.35
2023-01-17T00:59:30.182Z,9.27
2023-01-17T01:03:50.821Z,9.75
2023-01-17T01:08:11.014Z,8.63
2023-01-17T01:12:32.369Z,8.45
2023-01-17T01:16:54.129Z,9.20
2023-01-17T01:21:14.438Z,8.23
2023-01-17T01:25:34.704Z,8.05
2023-01-17T01:29:57.079Z,9.40
2023-01-17T01:34:01.317Z,6.90
2023-01-17T01:38:04.780Z,6.05
2023-01-17T01:42:14.331Z,6.53
2023-01-17T01:46:21.083Z,4.60
2023-01-17T01:50:25.800Z,4.32
2023-01-17T01:54:32.857Z,4.47
2023-01-17T01:58:37.727Z,4.32
2023-01-17T02:02:40.559Z,4.03
2023-01-17T02:06:48.234Z,4.43
2023-01-17T02:10:51.685Z,5.00
2023-01-17T02:14:54.392Z,4.57
2023-01-17T02:19:06.762Z,5.63
2023-01-17T02:23:32.907Z,6.00
2023-01-17T02:27:51.358Z,6.18
2023-01-17T02:32:03.181Z,7.57
2023-01-17T02:36:11.115Z,6.97
2023-01-17T02:40:18.570Z,6.63
2023-01-17T02:44:22.735Z,7.00
2023-01-17T02:48:31.603Z,6.63
2023-01-17T02:52:49.354Z,6.05
2023-01-17T02:57:02.342Z,6.35
2023-01-17T03:01:18.273Z,7.15
2023-01-17T03:05:28.243Z,8.40
2023-01-17T03:09:32.364Z,8.35
2023-01-17T03:13:35.133Z,9.25
2023-01-17T03:17:39.221Z,7.68
2023-01-17T03:21:43.682Z,8.10
2023-01-17T03:25:46.435Z,7.55
2023-01-17T03:29:49.182Z,8.68
2023-01-17T03:33:52.044Z,8.07
2023-01-17T03:37:56.340Z,9.00
2023-01-17T03:41:59.127Z,7.50
2023-01-17T03:46:06.917Z,6.80
2023-01-17T03:50:11.429Z,6.20
2023-01-17T03:54:15.629Z,5.20
2023-01-17T03:58:18.578Z,3.42
2023-01-17T04:02:21.407Z,3.33
2023-01-17T04:06:24.214Z,1.77
2023-01-17T04:10:28.381Z,1.95
2023-01-17T04:14:31.205Z,1.30
2023-01-17T04:18:34.012Z,1.45
2023-01-17T04:22:36.757Z,0.98
2023-01-17T04:26:40.896Z,0.95
2023-01-17T04:30:43.650Z,2.97
2023-01-17T04:34:46.393Z,1.73
2023-01-17T04:38:49.120Z,1.95
2023-01-17T04:42:54.158Z,2.83
2023-01-17T04:46:56.916Z,2.45
2023-01-17T04:51:02.804Z,3.63
2023-01-17T04:55:06.451Z,2.72
2023-01-17T04:59:10.516Z,3.15
2023-01-17T05:03:13.269Z,2.92
2023-01-17T05:07:16.165Z,3.17
2023-01-17T05:11:18.908Z,3.90
2023-01-17T05:15:23.132Z,3.90
2023-01-17T05:19:27.500Z,4.20
2023-01-17T05:23:30.477Z,4.50
2023-01-17T05:27:33.258Z,4.05
2023-01-17T05:31:37.599Z,4.68
2023-01-17T05:35:40.434Z,4.75
2023-01-17T05:39:43.299Z,5.03
2023-01-17T05:43:46.220Z,4.68
2023-01-17T05:47:52.824Z,4.07
2023-01-17T05:51:55.658Z,3.58
2023-01-17T05:55:58.455Z,3.90
2023-01-17T06:00:01.184Z,4.15
2023-01-17T06:04:05.439Z,4.15
2023-01-17T06:08:08.504Z,4.50
2023-01-17T06:12:11.271Z,6.93
2023-01-17T06:16:14.132Z,7.28
2023-01-17T06:20:18.470Z,6.90
2023-01-17T06:24:21.210Z,7.05
2023-01-17T06:28:24.844Z,7.72
2023-01-17T06:32:27.572Z,7.90
2023-01-17T06:36:33.357Z,10.02
2023-01-17T21:16:45.850Z,25.35
2023-01-17T21:20:49.323Z,16.20
2023-01-17T21:24:54.111Z,21.25
2023-01-17T21:29:02.021Z,16.85
2023-01-17T21:33:08.909Z,17.17
2023-01-17T21:37:27.043Z,23.63
2023-01-17T21:41:38.947Z,15.55
2023-01-17T21:45:46.410Z,15.57
2023-01-17T21:49:58.560Z,15.98
2023-01-17T21:54:09.119Z,14.25
2023-01-17T21:58:32.261Z,13.88
2023-01-17T22:02:35.282Z,17.25
2023-01-17T22:06:39.601Z,15.55
2023-01-17T22:10:45.617Z,15.55
2023-01-17T22:14:51.205Z,14.82
2023-01-17T22:18:54.559Z,17.77
2023-01-17T22:22:59.178Z,18.23
2023-01-17T22:27:02.118Z,21.48
2023-01-17T22:31:10.609Z,15.25
2023-01-17T22:35:15.195Z,16.70
2023-01-17T22:39:19.270Z,14.82
2023-01-17T22:43:22.066Z,18.27
2023-01-17T22:47:25.163Z,14.93
2023-01-17T22:51:29.839Z,15.32
2023-01-17T22:55:33.897Z,12.70
2023-01-17T22:59:36.682Z,14.57
2023-01-17T23:03:41.236Z,12.13
2023-01-17T23:07:44.378Z,11.38
2023-01-17T23:11:51.955Z,13.27
2023-01-17T23:16:12.651Z,12.25
2023-01-17T23:20:15.518Z,11.95
2023-01-17T23:24:18.242Z,14.43
2023-01-17T23:28:22.481Z,14.20
2023-01-17T23:32:26.189Z,13.85
2023-01-17T23:36:30.330Z,15.00
2023-01-17T23:40:34.534Z,13.70
2023-01-17T23:44:38.912Z,14.57
2023-01-17T23:48:41.812Z,13.35
2023-01-17T23:52:44.536Z,16.45
2023-01-17T23:56:47.301Z,15.57
